sensor_id;sensor_type;location;lat;lon;timestamp;pressure;altitude;pressure_sealevel;temperature;humidity
72798;BME280;61084;55.816;37.036;2023-07-29T00:00:32;98545.97;;;17.02;71.75
72798;BME280;61084;55.816;37.036;2023-07-29T00:02:58;98552.25;;;17.01;71.82
72798;BME280;61084;55.816;37.036;2023-07-29T00:05:24;98563.84;;;17.00;71.77
72798;BME280;61084;55.816;37.036;2023-07-29T00:07:51;98569.16;;;17.00;72.04
72798;BME280;61084;55.816;37.036;2023-07-29T00:10:16;98577.81;;;17.02;71.92
72798;BME280;61084;55.816;37.036;2023-07-29T00:12:42;98592.59;;;17.04;71.87
72798;BME280;61084;55.816;37.036;2023-07-29T00:15:08;98593.44;;;17.05;71.99
72798;BME280;61084;55.816;37.036;2023-07-29T00:17:34;98583.78;;;17.04;71.94
72798;BME280;61084;55.816;37.036;2023-07-29T00:20:00;98594.41;;;17.04;72.10
72798;BME280;61084;55.816;37.036;2023-07-29T00:22:26;98582.00;;;17.04;72.03
72798;BME280;61084;55.816;37.036;2023-07-29T00:24:53;98578.50;;;17.04;72.03
72798;BME280;61084;55.816;37.036;2023-07-29T00:27:23;98574.19;;;17.03;72.00
72798;BME280;61084;55.816;37.036;2023-07-29T00:29:49;98562.72;;;17.02;71.67
72798;BME280;61084;55.816;37.036;2023-07-29T00:32:15;98563.69;;;17.01;71.80
72798;BME280;61084;55.816;37.036;2023-07-29T00:34:41;98552.25;;;17.01;72.15
72798;BME280;61084;55.816;37.036;2023-07-29T00:37:06;98553.25;;;17.00;72.03
72798;BME280;61084;55.816;37.036;2023-07-29T00:39:32;98557.69;;;16.99;72.15
72798;BME280;61084;55.816;37.036;2023-07-29T00:41:59;98559.50;;;16.99;72.15
72798;BME280;61084;55.816;37.036;2023-07-29T00:44:24;98568.47;;;16.98;72.20
72798;BME280;61084;55.816;37.036;2023-07-29T00:46:52;98566.78;;;16.97;72.20
72798;BME280;61084;55.816;37.036;2023-07-29T00:49:20;98564.00;;;16.98;72.08
72798;BME280;61084;55.816;37.036;2023-07-29T00:51:47;98569.16;;;17.00;72.18
72798;BME280;61084;55.816;37.036;2023-07-29T00:54:13;98563.00;;;16.99;71.89
72798;BME280;61084;55.816;37.036;2023-07-29T00:56:40;98564.13;;;16.97;72.08
72798;BME280;61084;55.816;37.036;2023-07-29T00:59:06;98566.78;;;16.97;72.43
72798;BME280;61084;55.816;37.036;2023-07-29T01:01:32;98571.94;;;16.98;72.22
72798;BME280;61084;55.816;37.036;2023-07-29T01:03:58;98558.28;;;16.93;72.34
72798;BME280;61084;55.816;37.036;2023-07-29T01:06:37;98555.63;;;16.93;72.71
72798;BME280;61084;55.816;37.036;2023-07-29T01:09:20;98539.03;;;16.91;72.28
72798;BME280;61084;55.816;37.036;2023-07-29T01:17:33;98516.59;;;16.76;72.74
72798;BME280;61084;55.816;37.036;2023-07-29T01:20:09;98521.03;;;16.76;72.68
72798;BME280;61084;55.816;37.036;2023-07-29T01:22:37;98521.19;;;16.74;72.66
72798;BME280;61084;55.816;37.036;2023-07-29T01:25:05;98520.19;;;16.75;72.69
72798;BME280;61084;55.816;37.036;2023-07-29T01:27:32;98510.72;;;16.73;72.87
72798;BME280;61084;55.816;37.036;2023-07-29T01:29:59;98511.13;;;16.68;72.75
72798;BME280;61084;55.816;37.036;2023-07-29T01:35:07;98516.31;;;16.60;73.03
72798;BME280;61084;55.816;37.036;2023-07-29T01:37:37;98515.63;;;16.58;73.38
72798;BME280;61084;55.816;37.036;2023-07-29T01:40:05;98518.69;;;16.53;73.04
72798;BME280;61084;55.816;37.036;2023-07-29T01:42:34;98520.47;;;16.53;73.40
72798;BME280;61084;55.816;37.036;2023-07-29T01:45:00;98513.53;;;16.52;73.14
72798;BME280;61084;55.816;37.036;2023-07-29T01:47:26;98514.59;;;16.49;73.40
72798;BME280;61084;55.816;37.036;2023-07-29T01:49:54;98510.88;;;16.52;73.18
72798;BME280;61084;55.816;37.036;2023-07-29T01:52:20;98521.06;;;16.56;73.29
72798;BME280;61084;55.816;37.036;2023-07-29T01:54:47;98530.66;;;16.57;73.08
72798;BME280;61084;55.816;37.036;2023-07-29T01:57:13;98536.66;;;16.59;73.17
72798;BME280;61084;55.816;37.036;2023-07-29T01:59:39;98535.69;;;16.61;73.22
72798;BME280;61084;55.816;37.036;2023-07-29T02:02:04;98530.41;;;16.61;73.38
72798;BME280;61084;55.816;37.036;2023-07-29T02:04:30;98534.00;;;16.59;73.31
72798;BME280;61084;55.816;37.036;2023-07-29T02:06:56;98534.00;;;16.59;73.34
72798;BME280;61084;55.816;37.036;2023-07-29T02:09:22;98518.25;;;16.58;73.24
72798;BME280;61084;55.816;37.036;2023-07-29T02:11:48;98525.50;;;16.56;73.23
72798;BME280;61084;55.816;37.036;2023-07-29T02:14:13;98535.00;;;16.58;73.47
72798;BME280;61084;55.816;37.036;2023-07-29T02:16:39;98531.25;;;16.61;73.19
72798;BME280;61084;55.816;37.036;2023-07-29T02:19:25;98532.19;;;16.60;72.99
72798;BME280;61084;55.816;37.036;2023-07-29T02:21:51;98529.69;;;16.58;73.36
72798;BME280;61084;55.816;37.036;2023-07-29T02:24:16;98535.69;;;16.61;73.50
72798;BME280;61084;55.816;37.036;2023-07-29T02:26:42;98548.94;;;16.61;73.39
72798;BME280;61084;55.816;37.036;2023-07-29T02:29:08;98547.94;;;16.62;73.51
72798;BME280;61084;55.816;37.036;2023-07-29T02:31:34;98539.88;;;16.63;73.27
72798;BME280;61084;55.816;37.036;2023-07-29T02:34:02;98548.53;;;16.65;73.23
72798;BME280;61084;55.816;37.036;2023-07-29T02:36:28;98548.78;;;16.62;73.33
72798;BME280;61084;55.816;37.036;2023-07-29T02:38:53;98558.13;;;16.66;73.32
72798;BME280;61084;55.816;37.036;2023-07-29T02:41:20;98557.03;;;16.69;73.09
72798;BME280;61084;55.816;37.036;2023-07-29T02:43:49;98559.69;;;16.69;73.42
72798;BME280;61084;55.816;37.036;2023-07-29T02:46:15;98563.16;;;16.69;73.28
72798;BME280;61084;55.816;37.036;2023-07-29T02:48:42;98555.22;;;16.69;73.21
72798;BME280;61084;55.816;37.036;2023-07-29T02:51:08;98563.16;;;16.69;73.60
72798;BME280;61084;55.816;37.036;2023-07-29T02:53:34;98555.91;;;16.71;73.11
72798;BME280;61084;55.816;37.036;2023-07-29T02:56:03;98554.09;;;16.72;73.19
72798;BME280;61084;55.816;37.036;2023-07-29T02:58:29;98550.63;;;16.71;73.30
72798;BME280;61084;55.816;37.036;2023-07-29T03:01:02;98544.19;;;16.74;73.22
72798;BME280;61084;55.816;37.036;2023-07-29T03:03:28;98539.06;;;16.72;73.30
72798;BME280;61084;55.816;37.036;2023-07-29T03:06:05;98530.41;;;16.70;73.54
72798;BME280;61084;55.816;37.036;2023-07-29T03:08:32;98530.53;;;16.69;73.51
72798;BME280;61084;55.816;37.036;2023-07-29T03:11:04;98521.88;;;16.67;72.98
72798;BME280;61084;55.816;37.036;2023-07-29T03:13:30;98510.59;;;16.65;73.46
72798;BME280;61084;55.816;37.036;2023-07-29T03:16:17;98516.88;;;16.64;73.33
72798;BME280;61084;55.816;37.036;2023-07-29T03:18:49;98516.03;;;16.63;73.57
72798;BME280;61084;55.816;37.036;2023-07-29T03:21:15;98521.34;;;16.63;73.67
72798;BME280;61084;55.816;37.036;2023-07-29T03:23:41;98516.03;;;16.63;73.52
72798;BME280;61084;55.816;37.036;2023-07-29T03:26:07;98524.00;;;16.63;73.64
72798;BME280;61084;55.816;37.036;2023-07-29T03:28:41;98517.84;;;16.63;73.65
72798;BME280;61084;55.816;37.036;2023-07-29T03:31:07;98517.56;;;16.66;73.75
72798;BME280;61084;55.816;37.036;2023-07-29T03:33:33;98513.94;;;16.67;73.56
72798;BME280;61084;55.816;37.036;2023-07-29T03:35:59;98515.75;;;16.66;73.67
72798;BME280;61084;55.816;37.036;2023-07-29T03:38:25;98504.59;;;16.63;73.69
72798;BME280;61084;55.816;37.036;2023-07-29T03:40:51;98504.44;;;16.64;73.82
72798;BME280;61084;55.816;37.036;2023-07-29T03:43:19;98503.91;;;16.61;73.92
72798;BME280;61084;55.816;37.036;2023-07-29T03:45:45;98502.09;;;16.61;74.11
72798;BME280;61084;55.816;37.036;2023-07-29T03:48:12;98491.63;;;16.59;73.61
72798;BME280;61084;55.816;37.036;2023-07-29T03:50:38;98491.50;;;16.61;73.63
72798;BME280;61084;55.816;37.036;2023-07-29T03:53:05;98489.38;;;16.65;73.83
72798;BME280;61084;55.816;37.036;2023-07-29T03:55:31;98487.44;;;16.67;73.69
72798;BME280;61084;55.816;37.036;2023-07-29T03:57:58;98490.78;;;16.69;73.82
72798;BME280;61084;55.816;37.036;2023-07-29T04:00:25;98497.47;;;16.73;73.81
72798;BME280;61084;55.816;37.036;2023-07-29T04:02:51;98485.88;;;16.74;73.95
72798;BME280;61084;55.816;37.036;2023-07-29T04:05:18;98479.31;;;16.78;73.99
72798;BME280;61084;55.816;37.036;2023-07-29T04:07:44;98473.06;;;16.79;73.76
72798;BME280;61084;55.816;37.036;2023-07-29T04:10:11;98476.41;;;16.81;73.83
72798;BME280;61084;55.816;37.036;2023-07-29T04:12:38;98483.34;;;16.82;73.75
72798;BME280;61084;55.816;37.036;2023-07-29T04:15:05;98484.34;;;16.81;73.78
72798;BME280;61084;55.816;37.036;2023-07-29T04:17:32;98482.66;;;16.80;73.96
72798;BME280;61084;55.816;37.036;2023-07-29T04:19:58;98486.16;;;16.80;74.40
72798;BME280;61084;55.816;37.036;2023-07-29T04:22:30;98486.31;;;16.79;74.03
72798;BME280;61084;55.816;37.036;2023-07-29T04:24:56;98482.66;;;16.80;73.85
72798;BME280;61084;55.816;37.036;2023-07-29T04:27:22;98484.34;;;16.81;74.09
72798;BME280;61084;55.816;37.036;2023-07-29T04:29:48;98479.75;;;16.83;74.33
72798;BME280;61084;55.816;37.036;2023-07-29T04:32:14;98479.88;;;16.81;74.18
72798;BME280;61084;55.816;37.036;2023-07-29T04:34:42;98476.09;;;16.84;74.05
72798;BME280;61084;55.816;37.036;2023-07-29T04:37:08;98477.94;;;16.83;74.47
72798;BME280;61084;55.816;37.036;2023-07-29T04:39:34;98477.78;;;16.85;74.09
72798;BME280;61084;55.816;37.036;2023-07-29T04:41:59;98478.75;;;16.84;74.31
72798;BME280;61084;55.816;37.036;2023-07-29T04:44:27;98476.78;;;16.86;74.12
72798;BME280;61084;55.816;37.036;2023-07-29T04:46:53;98482.78;;;16.88;74.07
72798;BME280;61084;55.816;37.036;2023-07-29T04:49:19;98482.09;;;16.95;74.14
72798;BME280;61084;55.816;37.036;2023-07-29T04:51:46;98480.28;;;16.96;74.07
72798;BME280;61084;55.816;37.036;2023-07-29T04:54:12;98479.97;;;16.99;74.00
72798;BME280;61084;55.816;37.036;2023-07-29T04:56:37;98472.69;;;17.01;73.97
72798;BME280;61084;55.816;37.036;2023-07-29T04:59:03;98483.88;;;17.04;73.86
72798;BME280;61084;55.816;37.036;2023-07-29T05:01:30;98485.00;;;17.02;74.15
72798;BME280;61084;55.816;37.036;2023-07-29T05:03:56;98478.56;;;17.04;74.20
72798;BME280;61084;55.816;37.036;2023-07-29T05:06:23;98473.97;;;17.06;73.93
72798;BME280;61084;55.816;37.036;2023-07-29T05:08:49;98470.88;;;17.11;74.01
72798;BME280;61084;55.816;37.036;2023-07-29T05:11:15;98453.97;;;17.12;73.94
72798;BME280;61084;55.816;37.036;2023-07-29T05:13:42;98454.81;;;17.12;74.05
72798;BME280;61084;55.816;37.036;2023-07-29T05:16:10;98467.91;;;17.14;73.82
72798;BME280;61084;55.816;37.036;2023-07-29T05:18:37;98468.63;;;17.16;73.46
72798;BME280;61084;55.816;37.036;2023-07-29T05:21:03;98464.44;;;17.13;73.50
72798;BME280;61084;55.816;37.036;2023-07-29T05:23:29;98462.50;;;17.15;73.57
72798;BME280;61084;55.816;37.036;2023-07-29T05:25:55;98463.47;;;17.14;73.33
72798;BME280;61084;55.816;37.036;2023-07-29T05:28:21;98470.28;;;17.17;73.48
72798;BME280;61084;55.816;37.036;2023-07-29T05:30:47;98471.13;;;17.17;73.33
72798;BME280;61084;55.816;37.036;2023-07-29T05:33:13;98466.38;;;17.21;73.59
72798;BME280;61084;55.816;37.036;2023-07-29T05:35:39;98471.38;;;17.24;73.50
72798;BME280;61084;55.816;37.036;2023-07-29T05:38:06;98464.81;;;17.28;73.77
72798;BME280;61084;55.816;37.036;2023-07-29T05:40:34;98470.81;;;17.30;73.35
72798;BME280;61084;55.816;37.036;2023-07-29T05:43:00;98472.91;;;17.26;73.32
72798;BME280;61084;55.816;37.036;2023-07-29T05:45:26;98477.06;;;17.29;73.48
72798;BME280;61084;55.816;37.036;2023-07-29T05:47:52;98479.44;;;17.32;73.59
72798;BME280;61084;55.816;37.036;2023-07-29T05:50:20;98479.00;;;17.37;73.72
72798;BME280;61084;55.816;37.036;2023-07-29T05:52:46;98482.50;;;17.37;72.90
72798;BME280;61084;55.816;37.036;2023-07-29T05:55:12;98477.72;;;17.41;73.41
72798;BME280;61084;55.816;37.036;2023-07-29T05:57:38;98479.25;;;17.43;73.32
72798;BME280;61084;55.816;37.036;2023-07-29T06:00:07;98478.97;;;17.46;73.25
72798;BME280;61084;55.816;37.036;2023-07-29T06:02:39;98485.69;;;17.50;73.16
72798;BME280;61084;55.816;37.036;2023-07-29T06:05:09;98484.41;;;17.54;73.08
72798;BME280;61084;55.816;37.036;2023-07-29T06:07:35;98485.94;;;17.57;73.48
72798;BME280;61084;55.816;37.036;2023-07-29T06:10:02;98483.97;;;17.59;72.98
72798;BME280;61084;55.816;37.036;2023-07-29T06:12:30;98483.38;;;17.65;73.38
72798;BME280;61084;55.816;37.036;2023-07-29T06:14:56;98485.75;;;17.68;73.39
72798;BME280;61084;55.816;37.036;2023-07-29T06:17:21;98481.25;;;17.68;72.83
72798;BME280;61084;55.816;37.036;2023-07-29T06:19:48;98481.97;;;17.70;73.03
72798;BME280;61084;55.816;37.036;2023-07-29T06:22:14;98475.94;;;17.68;72.98
72798;BME280;61084;55.816;37.036;2023-07-29T06:24:40;98472.47;;;17.68;72.87
72798;BME280;61084;55.816;37.036;2023-07-29T06:27:06;98479.59;;;17.67;72.71
72798;BME280;61084;55.816;37.036;2023-07-29T06:29:31;98488.09;;;17.71;72.94
72798;BME280;61084;55.816;37.036;2023-07-29T06:31:58;98488.34;;;17.77;73.05
72798;BME280;61084;55.816;37.036;2023-07-29T06:34:24;98487.03;;;17.81;73.08
72798;BME280;61084;55.816;37.036;2023-07-29T06:36:50;98481.44;;;17.84;72.86
72798;BME280;61084;55.816;37.036;2023-07-29T06:39:15;98485.78;;;17.85;72.39
72798;BME280;61084;55.816;37.036;2023-07-29T06:41:41;98484.94;;;17.85;72.26
72798;BME280;61084;55.816;37.036;2023-07-29T06:44:08;98487.28;;;17.88;72.56
72798;BME280;61084;55.816;37.036;2023-07-29T06:46:34;98501.66;;;17.95;72.55
72798;BME280;61084;55.816;37.036;2023-07-29T06:49:00;98501.88;;;18.01;72.38
72798;BME280;61084;55.816;37.036;2023-07-29T06:51:26;98507.34;;;18.00;71.91
72798;BME280;61084;55.816;37.036;2023-07-29T06:53:55;98510.84;;;18.00;71.98
72798;BME280;61084;55.816;37.036;2023-07-29T06:56:21;98514.03;;;18.04;72.27
72798;BME280;61084;55.816;37.036;2023-07-29T06:58:46;98530.72;;;18.14;72.19
72798;BME280;61084;55.816;37.036;2023-07-29T07:01:12;98527.63;;;18.19;71.95
72798;BME280;61084;55.816;37.036;2023-07-29T07:03:39;98530.00;;;18.22;71.33
72798;BME280;61084;55.816;37.036;2023-07-29T07:06:04;98526.81;;;18.18;71.09
72798;BME280;61084;55.816;37.036;2023-07-29T07:08:31;98528.03;;;18.24;71.29
72798;BME280;61084;55.816;37.036;2023-07-29T07:10:57;98538.22;;;18.28;71.69
72798;BME280;61084;55.816;37.036;2023-07-29T07:13:22;98544.16;;;18.40;71.44
72798;BME280;61084;55.816;37.036;2023-07-29T07:15:48;98537.81;;;18.41;71.16
72798;BME280;61084;55.816;37.036;2023-07-29T07:18:14;98536.97;;;18.50;71.11
72798;BME280;61084;55.816;37.036;2023-07-29T07:20:40;98538.31;;;18.54;71.14
72798;BME280;61084;55.816;37.036;2023-07-29T07:23:06;98539.38;;;18.61;71.08
72798;BME280;61084;55.816;37.036;2023-07-29T07:25:36;98549.03;;;18.62;70.70
72798;BME280;61084;55.816;37.036;2023-07-29T07:28:02;98539.22;;;18.62;70.73
72798;BME280;61084;55.816;37.036;2023-07-29T07:30:28;98537.13;;;18.66;70.48
72798;BME280;61084;55.816;37.036;2023-07-29T07:32:54;98533.97;;;18.70;70.45
72798;BME280;61084;55.816;37.036;2023-07-29T07:35:20;98538.84;;;18.75;70.27
72798;BME280;61084;55.816;37.036;2023-07-29T07:37:46;98544.25;;;18.83;70.39
72798;BME280;61084;55.816;37.036;2023-07-29T07:40:12;98541.94;;;18.88;70.16
72798;BME280;61084;55.816;37.036;2023-07-29T07:42:39;98545.66;;;18.95;69.94
72798;BME280;61084;55.816;37.036;2023-07-29T07:45:05;98544.91;;;19.03;69.85
72798;BME280;61084;55.816;37.036;2023-07-29T07:47:32;98543.44;;;19.08;69.72
72798;BME280;61084;55.816;37.036;2023-07-29T07:49:58;98542.06;;;19.04;68.89
72798;BME280;61084;55.816;37.036;2023-07-29T07:52:24;98547.56;;;19.03;69.07
72798;BME280;61084;55.816;37.036;2023-07-29T07:54:53;98530.91;;;19.01;69.03
72798;BME280;61084;55.816;37.036;2023-07-29T07:57:20;98536.16;;;18.93;68.02
72798;BME280;61084;55.816;37.036;2023-07-29T07:59:47;98530.53;;;18.96;69.04
72798;BME280;61084;55.816;37.036;2023-07-29T08:02:12;98523.91;;;19.00;69.05
72798;BME280;61084;55.816;37.036;2023-07-29T08:04:38;98521.63;;;19.05;69.01
72798;BME280;61084;55.816;37.036;2023-07-29T08:07:04;98524.28;;;19.05;68.70
72798;BME280;61084;55.816;37.036;2023-07-29T08:09:30;98523.81;;;19.09;68.86
72798;BME280;61084;55.816;37.036;2023-07-29T08:11:56;98520.50;;;19.07;67.96
72798;BME280;61084;55.816;37.036;2023-07-29T08:14:22;98523.03;;;19.17;68.44
72798;BME280;61084;55.816;37.036;2023-07-29T08:16:48;98522.41;;;19.23;68.01
72798;BME280;61084;55.816;37.036;2023-07-29T08:19:14;98514.63;;;19.29;68.57
72798;BME280;61084;55.816;37.036;2023-07-29T08:21:40;98521.88;;;19.37;68.34
72798;BME280;61084;55.816;37.036;2023-07-29T08:24:05;98519.25;;;19.45;68.17
72798;BME280;61084;55.816;37.036;2023-07-29T08:26:33;98518.59;;;19.51;68.41
72798;BME280;61084;55.816;37.036;2023-07-29T08:28:59;98529.44;;;19.58;67.89
72798;BME280;61084;55.816;37.036;2023-07-29T08:31:24;98530.81;;;19.62;67.97
72798;BME280;61084;55.816;37.036;2023-07-29T08:33:50;98527.31;;;19.61;67.97
72798;BME280;61084;55.816;37.036;2023-07-29T08:36:16;98532.47;;;19.63;67.69
72798;BME280;61084;55.816;37.036;2023-07-29T08:38:42;98534.47;;;19.61;67.39
72798;BME280;61084;55.816;37.036;2023-07-29T08:41:38;98520.50;;;19.67;67.47
72798;BME280;61084;55.816;37.036;2023-07-29T08:44:12;98517.53;;;19.70;66.39
72798;BME280;61084;55.816;37.036;2023-07-29T08:46:44;98520.22;;;19.70;66.96
72798;BME280;61084;55.816;37.036;2023-07-29T08:49:11;98509.38;;;19.71;66.86
72798;BME280;61084;55.816;37.036;2023-07-29T08:51:41;98513.56;;;19.74;65.91
72798;BME280;61084;55.816;37.036;2023-07-29T08:54:08;98511.25;;;19.79;66.95
72798;BME280;61084;55.816;37.036;2023-07-29T08:56:34;98499.66;;;19.88;67.00
72798;BME280;61084;55.816;37.036;2023-07-29T08:59:00;98500.50;;;19.96;66.64
72798;BME280;61084;55.816;37.036;2023-07-29T09:01:28;98507.34;;;20.07;66.57
72798;BME280;61084;55.816;37.036;2023-07-29T09:03:56;98507.19;;;20.08;66.17
72798;BME280;61084;55.816;37.036;2023-07-29T09:06:23;98508.34;;;20.14;66.19
72798;BME280;61084;55.816;37.036;2023-07-29T09:08:55;98509.41;;;20.21;65.94
72798;BME280;61084;55.816;37.036;2023-07-29T09:11:26;98500.91;;;20.25;65.94
72798;BME280;61084;55.816;37.036;2023-07-29T09:13:52;98502.13;;;20.31;65.88
72798;BME280;61084;55.816;37.036;2023-07-29T09:16:20;98508.44;;;20.38;66.04
72798;BME280;61084;55.816;37.036;2023-07-29T09:18:49;98508.13;;;20.49;66.00
72798;BME280;61084;55.816;37.036;2023-07-29T09:21:24;98506.47;;;20.56;65.19
72798;BME280;61084;55.816;37.036;2023-07-29T09:23:53;98515.97;;;20.59;66.07
72798;BME280;61084;55.816;37.036;2023-07-29T09:26:22;98522.28;;;20.58;64.07
72798;BME280;61084;55.816;37.036;2023-07-29T09:28:52;98523.13;;;20.58;64.45
72798;BME280;61084;55.816;37.036;2023-07-29T09:31:22;98520.81;;;20.55;64.44
72798;BME280;61084;55.816;37.036;2023-07-29T09:33:49;98520.81;;;20.55;64.53
72798;BME280;61084;55.816;37.036;2023-07-29T09:36:15;98523.78;;;20.52;63.53
72798;BME280;61084;55.816;37.036;2023-07-29T09:38:41;98523.78;;;20.44;64.19
72798;BME280;61084;55.816;37.036;2023-07-29T09:41:06;98520.78;;;20.47;63.63
72798;BME280;61084;55.816;37.036;2023-07-29T09:43:34;98524.63;;;20.53;64.43
72798;BME280;61084;55.816;37.036;2023-07-29T09:46:01;98516.16;;;20.57;64.49
72798;BME280;61084;55.816;37.036;2023-07-29T09:48:27;98517.78;;;20.66;64.18
72798;BME280;61084;55.816;37.036;2023-07-29T09:50:56;98510.63;;;20.67;63.75
72798;BME280;61084;55.816;37.036;2023-07-29T09:53:22;98515.47;;;20.63;63.45
72798;BME280;61084;55.816;37.036;2023-07-29T09:55:48;98518.16;;;20.63;62.87
72798;BME280;61084;55.816;37.036;2023-07-29T09:58:28;98513.78;;;20.62;63.52
72798;BME280;61084;55.816;37.036;2023-07-29T10:00:54;98521.31;;;20.59;63.90
72798;BME280;61084;55.816;37.036;2023-07-29T10:03:21;98526.28;;;20.54;63.36
72798;BME280;61084;55.816;37.036;2023-07-29T10:05:47;98523.97;;;20.51;62.94
72798;BME280;61084;55.816;37.036;2023-07-29T10:08:13;98523.97;;;20.51;63.33
72798;BME280;61084;55.816;37.036;2023-07-29T10:10:42;98534.16;;;20.55;63.41
72798;BME280;61084;55.816;37.036;2023-07-29T10:13:09;98535.31;;;20.61;63.33
72798;BME280;61084;55.816;37.036;2023-07-29T10:15:36;98533.47;;;20.69;63.69
72798;BME280;61084;55.816;37.036;2023-07-29T10:18:02;98533.31;;;20.71;63.18
72798;BME280;61084;55.816;37.036;2023-07-29T10:20:30;98541.31;;;20.71;62.84
72798;BME280;61084;55.816;37.036;2023-07-29T10:22:59;98539.47;;;20.71;62.16
72798;BME280;61084;55.816;37.036;2023-07-29T10:25:34;98526.13;;;20.71;62.57
72798;BME280;61084;55.816;37.036;2023-07-29T10:28:07;98530.63;;;20.71;61.96
72798;BME280;61084;55.816;37.036;2023-07-29T10:30:33;98525.78;;;20.66;61.85
72798;BME280;61084;55.816;37.036;2023-07-29T10:33:03;98519.78;;;20.64;61.20
72798;BME280;61084;55.816;37.036;2023-07-29T10:35:31;98515.13;;;20.58;61.66
72798;BME280;61084;55.816;37.036;2023-07-29T10:37:59;98513.97;;;20.61;61.59
72798;BME280;61084;55.816;37.036;2023-07-29T10:40:25;98512.97;;;20.54;61.04
72798;BME280;61084;55.816;37.036;2023-07-29T10:43:09;98520.63;;;20.49;61.01
72798;BME280;61084;55.816;37.036;2023-07-29T10:45:41;98522.28;;;20.50;61.47
72798;BME280;61084;55.816;37.036;2023-07-29T10:54:10;98532.47;;;20.54;60.64
72798;BME280;61084;55.816;37.036;2023-07-29T10:56:40;98529.78;;;20.54;60.81
72798;BME280;61084;55.816;37.036;2023-07-29T11:01:40;98538.97;;;20.60;61.57
72798;BME280;61084;55.816;37.036;2023-07-29T11:09:53;98535.00;;;20.64;60.03
72798;BME280;61084;55.816;37.036;2023-07-29T11:15:04;98545.97;;;20.61;60.75
72798;BME280;61084;55.816;37.036;2023-07-29T11:18:06;98549.13;;;20.64;60.30
72798;BME280;61084;55.816;37.036;2023-07-29T11:20:34;98547.66;;;20.70;60.87
72798;BME280;61084;55.816;37.036;2023-07-29T11:23:01;98531.16;;;20.74;60.96
72798;BME280;61084;55.816;37.036;2023-07-29T11:25:29;98540.66;;;20.77;61.10
72798;BME280;61084;55.816;37.036;2023-07-29T11:27:57;98542.13;;;20.79;61.67
72798;BME280;61084;55.816;37.036;2023-07-29T11:30:23;98541.81;;;20.74;60.17
72798;BME280;61084;55.816;37.036;2023-07-29T11:32:53;98540.81;;;20.75;59.74
72798;BME280;61084;55.816;37.036;2023-07-29T11:35:19;98540.66;;;20.77;60.75
72798;BME280;61084;55.816;37.036;2023-07-29T11:37:48;98547.31;;;20.81;60.95
72798;BME280;61084;55.816;37.036;2023-07-29T11:40:15;98554.84;;;20.85;61.12
72798;BME280;61084;55.816;37.036;2023-07-29T11:42:42;98552.50;;;20.82;60.32
72798;BME280;61084;55.816;37.036;2023-07-29T11:45:08;98554.16;;;20.83;60.88
72798;BME280;61084;55.816;37.036;2023-07-29T11:47:35;98550.81;;;20.81;60.66
72798;BME280;61084;55.816;37.036;2023-07-29T11:50:14;98550.81;;;20.81;60.17
72798;BME280;61084;55.816;37.036;2023-07-29T11:52:45;98547.66;;;20.86;60.84
72798;BME280;61084;55.816;37.036;2023-07-29T11:55:12;98558.66;;;20.91;61.08
72798;BME280;61084;55.816;37.036;2023-07-29T11:57:39;98552.34;;;20.92;60.06
72798;BME280;61084;55.816;37.036;2023-07-29T12:00:08;98554.16;;;20.91;60.51
72798;BME280;61084;55.816;37.036;2023-07-29T12:02:40;98560.34;;;20.92;60.63
72798;BME280;61084;55.816;37.036;2023-07-29T12:05:09;98572.16;;;20.97;60.63
72798;BME280;61084;55.816;37.036;2023-07-29T12:07:36;98563.66;;;21.02;60.81
72798;BME280;61084;55.816;37.036;2023-07-29T12:10:04;98568.84;;;21.03;60.92
72798;BME280;61084;55.816;37.036;2023-07-29T12:12:30;98567.88;;;21.05;60.46
72798;BME280;61084;55.816;37.036;2023-07-29T12:14:56;98568.69;;;21.13;60.78
72798;BME280;61084;55.816;37.036;2023-07-29T12:17:22;98566.00;;;21.21;60.71
72798;BME280;61084;55.816;37.036;2023-07-29T12:19:48;98561.19;;;21.25;60.78
72798;BME280;61084;55.816;37.036;2023-07-29T12:22:18;98560.34;;;21.24;60.19
72798;BME280;61084;55.816;37.036;2023-07-29T12:24:44;98564.53;;;21.27;60.50
72798;BME280;61084;55.816;37.036;2023-07-29T12:27:12;98565.00;;;21.30;60.83
72798;BME280;61084;55.816;37.036;2023-07-29T12:29:47;98552.97;;;21.34;60.34
72798;BME280;61084;55.816;37.036;2023-07-29T12:32:14;98544.31;;;21.32;60.33
72798;BME280;61084;55.816;37.036;2023-07-29T12:34:40;98544.13;;;21.34;60.69
72798;BME280;61084;55.816;37.036;2023-07-29T12:37:06;98545.47;;;21.30;60.30
72798;BME280;61084;55.816;37.036;2023-07-29T12:39:35;98544.63;;;21.29;60.02
72798;BME280;61084;55.816;37.036;2023-07-29T12:42:05;98555.00;;;21.32;60.55
72798;BME280;61084;55.816;37.036;2023-07-29T12:44:33;98544.13;;;21.34;60.28
72798;BME280;61084;55.816;37.036;2023-07-29T12:47:01;98547.81;;;21.33;59.97
72798;BME280;61084;55.816;37.036;2023-07-29T12:49:29;98552.66;;;21.29;60.26
72798;BME280;61084;55.816;37.036;2023-07-29T12:51:56;98555.84;;;21.33;60.30
72798;BME280;61084;55.816;37.036;2023-07-29T12:54:22;98553.81;;;21.35;60.12
72798;BME280;61084;55.816;37.036;2023-07-29T12:56:48;98555.31;;;21.37;60.15
72798;BME280;61084;55.816;37.036;2023-07-29T12:59:14;98552.47;;;21.39;59.81
72798;BME280;61084;55.816;37.036;2023-07-29T13:01:40;98551.50;;;21.40;59.99
72798;BME280;61084;55.816;37.036;2023-07-29T13:04:06;98545.81;;;21.35;59.60
72798;BME280;61084;55.816;37.036;2023-07-29T13:06:32;98553.81;;;21.35;60.14
72798;BME280;61084;55.816;37.036;2023-07-29T13:08:58;98547.31;;;21.37;59.35
72798;BME280;61084;55.816;37.036;2023-07-29T13:11:24;98550.47;;;21.41;60.03
72798;BME280;61084;55.816;37.036;2023-07-29T13:13:51;98541.09;;;21.45;60.35
72798;BME280;61084;55.816;37.036;2023-07-29T13:16:17;98550.63;;;21.47;59.58